sensor_id;sensor_type;location;lat;lon;timestamp;P1;durP1;ratioP1;P2;durP2;ratioP2
48042;SDS011;33988;47.992;8.820;2023-05-14T00:02:17;5.18;;;3.40;;
48042;SDS011;33988;47.992;8.820;2023-05-14T00:04:45;3.90;;;3.40;;
48042;SDS011;33988;47.992;8.820;2023-05-14T00:07:12;4.47;;;3.80;;
48042;SDS011;33988;47.992;8.820;2023-05-14T00:09:38;4.05;;;3.47;;
48042;SDS011;33988;47.992;8.820;2023-05-14T00:12:06;4.15;;;3.72;;
48042;SDS011;33988;47.992;8.820;2023-05-14T00:14:35;4.45;;;4.05;;
48042;SDS011;33988;47.992;8.820;2023-05-14T00:17:02;4.18;;;3.78;;
48042;SDS011;33988;47.992;8.820;2023-05-14T00:19:29;5.82;;;4.60;;
48042;SDS011;33988;47.992;8.820;2023-05-14T00:22:01;4.95;;;4.03;;
48042;SDS011;33988;47.992;8.820;2023-05-14T00:24:30;5.32;;;4.18;;
48042;SDS011;33988;47.992;8.820;2023-05-14T00:27:02;3.88;;;3.47;;
48042;SDS011;33988;47.992;8.820;2023-05-14T00:29:32;4.00;;;3.60;;
48042;SDS011;33988;47.992;8.820;2023-05-14T00:31:59;3.90;;;3.53;;
48042;SDS011;33988;47.992;8.820;2023-05-14T00:36:57;5.43;;;3.38;;
48042;SDS011;33988;47.992;8.820;2023-05-14T00:39:24;3.65;;;3.15;;
48042;SDS011;33988;47.992;8.820;2023-05-14T00:41:51;3.50;;;3.20;;
48042;SDS011;33988;47.992;8.820;2023-05-14T00:44:20;3.67;;;2.97;;
48042;SDS011;33988;47.992;8.820;2023-05-14T00:46:50;3.35;;;3.05;;
48042;SDS011;33988;47.992;8.820;2023-05-14T00:49:18;4.35;;;3.80;;
48042;SDS011;33988;47.992;8.820;2023-05-14T00:51:45;4.25;;;3.75;;
48042;SDS011;33988;47.992;8.820;2023-05-14T00:54:15;3.95;;;3.53;;
48042;SDS011;33988;47.992;8.820;2023-05-14T00:56:47;4.05;;;3.65;;
48042;SDS011;33988;47.992;8.820;2023-05-14T00:59:20;4.57;;;4.07;;
48042;SDS011;33988;47.992;8.820;2023-05-14T01:01:49;4.32;;;3.63;;
48042;SDS011;33988;47.992;8.820;2023-05-14T01:04:21;4.45;;;3.50;;
48042;SDS011;33988;47.992;8.820;2023-05-14T01:15:35;4.75;;;3.83;;
48042;SDS011;33988;47.992;8.820;2023-05-14T01:18:08;5.40;;;3.95;;
48042;SDS011;33988;47.992;8.820;2023-05-14T01:20:39;4.60;;;3.30;;
48042;SDS011;33988;47.992;8.820;2023-05-14T01:23:10;3.50;;;3.20;;
48042;SDS011;33988;47.992;8.820;2023-05-14T01:25:37;3.63;;;3.33;;
48042;SDS011;33988;47.992;8.820;2023-05-14T01:33:43;3.50;;;3.20;;
48042;SDS011;33988;47.992;8.820;2023-05-14T01:36:16;3.65;;;3.25;;
48042;SDS011;33988;47.992;8.820;2023-05-14T01:38:51;4.30;;;3.72;;
48042;SDS011;33988;47.992;8.820;2023-05-14T01:41:19;3.80;;;3.40;;
48042;SDS011;33988;47.992;8.820;2023-05-14T01:43:47;3.63;;;3.33;;
48042;SDS011;33988;47.992;8.820;2023-05-14T01:46:20;5.20;;;3.30;;
48042;SDS011;33988;47.992;8.820;2023-05-14T01:48:49;3.70;;;3.33;;
48042;SDS011;33988;47.992;8.820;2023-05-14T01:51:16;4.97;;;3.47;;
48042;SDS011;33988;47.992;8.820;2023-05-14T01:53:45;3.90;;;3.50;;
48042;SDS011;33988;47.992;8.820;2023-05-14T01:56:13;3.83;;;3.42;;
48042;SDS011;33988;47.992;8.820;2023-05-14T01:58:45;4.30;;;3.72;;
48042;SDS011;33988;47.992;8.820;2023-05-14T02:01:14;4.30;;;3.90;;
48042;SDS011;33988;47.992;8.820;2023-05-14T02:03:41;3.90;;;3.50;;
48042;SDS011;33988;47.992;8.820;2023-05-14T02:06:08;4.15;;;3.47;;
48042;SDS011;33988;47.992;8.820;2023-05-14T02:08:38;4.82;;;3.17;;
48042;SDS011;33988;47.992;8.820;2023-05-14T02:11:07;4.50;;;4.10;;
48042;SDS011;33988;47.992;8.820;2023-05-14T02:13:34;3.55;;;3.25;;
48042;SDS011;33988;47.992;8.820;2023-05-14T02:16:01;3.38;;;3.08;;
48042;SDS011;33988;47.992;8.820;2023-05-14T02:18:29;3.20;;;2.90;;
48042;SDS011;33988;47.992;8.820;2023-05-14T02:20:56;5.53;;;3.38;;
48042;SDS011;33988;47.992;8.820;2023-05-14T02:23:25;3.90;;;3.58;;
48042;SDS011;33988;47.992;8.820;2023-05-14T02:26:06;3.55;;;3.25;;
48042;SDS011;33988;47.992;8.820;2023-05-14T02:28:38;3.65;;;3.20;;
48042;SDS011;33988;47.992;8.820;2023-05-14T02:31:08;3.67;;;3.20;;
48042;SDS011;33988;47.992;8.820;2023-05-14T02:33:34;4.35;;;3.42;;
48042;SDS011;33988;47.992;8.820;2023-05-14T02:36:04;4.13;;;2.95;;
48042;SDS011;33988;47.992;8.820;2023-05-14T02:38:33;5.13;;;3.55;;
48042;SDS011;33988;47.992;8.820;2023-05-14T02:41:03;4.18;;;3.72;;
48042;SDS011;33988;47.992;8.820;2023-05-14T02:43:32;3.47;;;3.05;;
48042;SDS011;33988;47.992;8.820;2023-05-14T02:46:01;4.82;;;3.95;;
48042;SDS011;33988;47.992;8.820;2023-05-14T02:48:33;4.47;;;3.92;;
48042;SDS011;33988;47.992;8.820;2023-05-14T02:51:02;4.32;;;3.78;;
48042;SDS011;33988;47.992;8.820;2023-05-14T02:53:32;6.25;;;3.92;;
48042;SDS011;33988;47.992;8.820;2023-05-14T02:56:01;3.92;;;3.53;;
48042;SDS011;33988;47.992;8.820;2023-05-14T02:58:31;4.28;;;3.88;;
48042;SDS011;33988;47.992;8.820;2023-05-14T03:00:58;5.35;;;3.80;;
48042;SDS011;33988;47.992;8.820;2023-05-14T03:03:30;3.95;;;3.55;;
48042;SDS011;33988;47.992;8.820;2023-05-14T03:06:00;4.00;;;3.63;;
48042;SDS011;33988;47.992;8.820;2023-05-14T03:08:30;5.25;;;3.90;;
48042;SDS011;33988;47.992;8.820;2023-05-14T03:10:57;3.85;;;3.35;;
48042;SDS011;33988;47.992;8.820;2023-05-14T03:13:26;3.90;;;3.58;;
48042;SDS011;33988;47.992;8.820;2023-05-14T03:15:55;4.22;;;3.80;;
48042;SDS011;33988;47.992;8.820;2023-05-14T03:18:22;4.80;;;3.63;;
48042;SDS011;33988;47.992;8.820;2023-05-14T03:20:49;4.38;;;3.42;;
48042;SDS011;33988;47.992;8.820;2023-05-14T03:23:16;4.68;;;3.75;;
48042;SDS011;33988;47.992;8.820;2023-05-14T03:25:43;4.43;;;4.03;;
48042;SDS011;33988;47.992;8.820;2023-05-14T03:28:10;4.78;;;3.75;;
48042;SDS011;33988;47.992;8.820;2023-05-14T03:30:37;4.28;;;3.88;;
48042;SDS011;33988;47.992;8.820;2023-05-14T03:33:06;4.10;;;3.70;;
48042;SDS011;33988;47.992;8.820;2023-05-14T03:35:38;4.60;;;4.10;;
48042;SDS011;33988;47.992;8.820;2023-05-14T03:38:04;4.72;;;3.83;;
48042;SDS011;33988;47.992;8.820;2023-05-14T03:40:32;4.18;;;3.78;;
48042;SDS011;33988;47.992;8.820;2023-05-14T03:43:02;5.03;;;3.88;;
48042;SDS011;33988;47.992;8.820;2023-05-14T03:45:28;4.25;;;3.85;;
48042;SDS011;33988;47.992;8.820;2023-05-14T03:47:58;4.32;;;3.92;;
48042;SDS011;33988;47.992;8.820;2023-05-14T03:50:25;5.03;;;3.65;;
48042;SDS011;33988;47.992;8.820;2023-05-14T03:52:55;4.57;;;3.53;;
48042;SDS011;33988;47.992;8.820;2023-05-14T03:55:22;4.05;;;3.50;;
48042;SDS011;33988;47.992;8.820;2023-05-14T03:57:51;3.63;;;3.33;;
48042;SDS011;33988;47.992;8.820;2023-05-14T04:00:20;4.50;;;4.10;;
48042;SDS011;33988;47.992;8.820;2023-05-14T04:02:48;5.28;;;3.85;;
48042;SDS011;33988;47.992;8.820;2023-05-14T04:05:15;4.35;;;3.70;;
48042;SDS011;33988;47.992;8.820;2023-05-14T04:07:44;4.30;;;3.90;;
48042;SDS011;33988;47.992;8.820;2023-05-14T04:10:13;4.57;;;3.63;;
48042;SDS011;33988;47.992;8.820;2023-05-14T04:12:40;4.13;;;3.78;;
48042;SDS011;33988;47.992;8.820;2023-05-14T04:15:10;3.60;;;3.30;;
48042;SDS011;33988;47.992;8.820;2023-05-14T04:17:37;4.45;;;3.97;;
48042;SDS011;33988;47.992;8.820;2023-05-14T04:22:36;4.82;;;3.83;;
48042;SDS011;33988;47.992;8.820;2023-05-14T04:25:06;4.00;;;3.60;;
48042;SDS011;33988;47.992;8.820;2023-05-14T04:27:33;4.20;;;3.80;;
48042;SDS011;33988;47.992;8.820;2023-05-14T04:30:00;4.20;;;3.80;;
48042;SDS011;33988;47.992;8.820;2023-05-14T04:32:30;4.43;;;3.90;;
48042;SDS011;33988;47.992;8.820;2023-05-14T04:34:57;4.13;;;3.72;;
48042;SDS011;33988;47.992;8.820;2023-05-14T04:37:26;3.60;;;3.30;;
48042;SDS011;33988;47.992;8.820;2023-05-14T04:39:56;4.13;;;3.58;;
48042;SDS011;33988;47.992;8.820;2023-05-14T04:44:54;4.00;;;3.45;;
48042;SDS011;33988;47.992;8.820;2023-05-14T04:47:23;4.65;;;3.78;;
48042;SDS011;33988;47.992;8.820;2023-05-14T04:49:53;4.82;;;3.92;;
48042;SDS011;33988;47.992;8.820;2023-05-14T04:52:19;5.18;;;3.58;;
48042;SDS011;33988;47.992;8.820;2023-05-14T04:54:48;5.03;;;4.53;;
48042;SDS011;33988;47.992;8.820;2023-05-14T04:57:16;5.68;;;4.00;;
48042;SDS011;33988;47.992;8.820;2023-05-14T04:59:42;4.80;;;3.88;;
48042;SDS011;33988;47.992;8.820;2023-05-14T05:02:09;4.78;;;4.28;;
48042;SDS011;33988;47.992;8.820;2023-05-14T05:04:41;4.32;;;3.88;;
48042;SDS011;33988;47.992;8.820;2023-05-14T05:07:08;4.43;;;3.88;;
48042;SDS011;33988;47.992;8.820;2023-05-14T05:09:34;4.57;;;4.18;;
48042;SDS011;33988;47.992;8.820;2023-05-14T05:12:01;5.65;;;4.13;;
48042;SDS011;33988;47.992;8.820;2023-05-14T05:14:38;5.63;;;4.28;;
48042;SDS011;33988;47.992;8.820;2023-05-14T05:17:05;4.60;;;4.03;;
48042;SDS011;33988;47.992;8.820;2023-05-14T05:19:34;4.78;;;4.18;;
48042;SDS011;33988;47.992;8.820;2023-05-14T05:22:12;4.93;;;4.43;;
48042;SDS011;33988;47.992;8.820;2023-05-14T05:24:41;4.25;;;3.80;;
48042;SDS011;33988;47.992;8.820;2023-05-14T05:27:08;4.78;;;4.10;;
48042;SDS011;33988;47.992;8.820;2023-05-14T05:29:37;5.70;;;4.85;;
48042;SDS011;33988;47.992;8.820;2023-05-14T05:32:06;6.72;;;5.40;;
48042;SDS011;33988;47.992;8.820;2023-05-14T05:34:36;6.00;;;5.03;;
48042;SDS011;33988;47.992;8.820;2023-05-14T05:37:05;6.55;;;4.97;;
48042;SDS011;33988;47.992;8.820;2023-05-14T05:39:32;7.03;;;5.40;;
48042;SDS011;33988;47.992;8.820;2023-05-14T05:42:00;5.60;;;5.00;;
48042;SDS011;33988;47.992;8.820;2023-05-14T05:44:28;5.95;;;5.18;;
48042;SDS011;33988;47.992;8.820;2023-05-14T05:46:57;5.78;;;5.18;;
48042;SDS011;33988;47.992;8.820;2023-05-14T05:49:24;6.53;;;5.47;;
48042;SDS011;33988;47.992;8.820;2023-05-14T05:51:58;8.13;;;5.88;;
48042;SDS011;33988;47.992;8.820;2023-05-14T05:54:25;6.90;;;5.82;;
48042;SDS011;33988;47.992;8.820;2023-05-14T05:56:57;6.43;;;5.72;;
48042;SDS011;33988;47.992;8.820;2023-05-14T05:59:27;7.10;;;5.97;;
48042;SDS011;33988;47.992;8.820;2023-05-14T06:01:54;8.55;;;5.38;;
48042;SDS011;33988;47.992;8.820;2023-05-14T06:04:24;6.82;;;5.45;;
48042;SDS011;33988;47.992;8.820;2023-05-14T06:06:53;6.60;;;5.40;;
48042;SDS011;33988;47.992;8.820;2023-05-14T06:09:20;7.45;;;6.10;;
48042;SDS011;33988;47.992;8.820;2023-05-14T06:11:47;7.80;;;6.03;;
48042;SDS011;33988;47.992;8.820;2023-05-14T06:14:16;7.75;;;6.53;;
48042;SDS011;33988;47.992;8.820;2023-05-14T06:16:46;7.35;;;6.25;;
48042;SDS011;33988;47.992;8.820;2023-05-14T06:19:15;8.18;;;6.82;;
48042;SDS011;33988;47.992;8.820;2023-05-14T06:21:45;7.07;;;5.90;;
48042;SDS011;33988;47.992;8.820;2023-05-14T06:24:14;8.55;;;5.78;;
48042;SDS011;33988;47.992;8.820;2023-05-14T06:26:45;7.87;;;6.57;;
48042;SDS011;33988;47.992;8.820;2023-05-14T06:29:16;7.57;;;6.15;;
48042;SDS011;33988;47.992;8.820;2023-05-14T06:31:46;7.10;;;6.10;;
48042;SDS011;33988;47.992;8.820;2023-05-14T06:36:46;6.72;;;5.47;;
48042;SDS011;33988;47.992;8.820;2023-05-14T06:39:13;6.60;;;5.53;;
48042;SDS011;33988;47.992;8.820;2023-05-14T06:41:40;6.82;;;5.00;;
48042;SDS011;33988;47.992;8.820;2023-05-14T06:44:09;6.43;;;5.40;;
48042;SDS011;33988;47.992;8.820;2023-05-14T06:46:37;5.60;;;4.97;;
48042;SDS011;33988;47.992;8.820;2023-05-14T06:49:03;5.70;;;4.95;;
48042;SDS011;33988;47.992;8.820;2023-05-14T06:51:33;6.20;;;5.15;;
48042;SDS011;33988;47.992;8.820;2023-05-14T06:54:00;6.22;;;5.30;;
48042;SDS011;33988;47.992;8.820;2023-05-14T06:56:27;5.90;;;5.25;;
48042;SDS011;33988;47.992;8.820;2023-05-14T06:58:56;7.65;;;5.53;;
48042;SDS011;33988;47.992;8.820;2023-05-14T07:01:30;5.72;;;5.07;;
48042;SDS011;33988;47.992;8.820;2023-05-14T07:03:57;6.00;;;5.28;;
48042;SDS011;33988;47.992;8.820;2023-05-14T07:06:26;5.57;;;4.72;;
48042;SDS011;33988;47.992;8.820;2023-05-14T07:11:25;6.28;;;4.38;;
48042;SDS011;33988;47.992;8.820;2023-05-14T07:13:56;5.03;;;4.28;;
48042;SDS011;33988;47.992;8.820;2023-05-14T07:16:26;5.22;;;4.38;;
48042;SDS011;33988;47.992;8.820;2023-05-14T07:18:55;4.88;;;4.13;;
48042;SDS011;33988;47.992;8.820;2023-05-14T07:21:25;5.95;;;4.25;;
48042;SDS011;33988;47.992;8.820;2023-05-14T07:23:57;6.38;;;4.20;;
48042;SDS011;33988;47.992;8.820;2023-05-14T07:26:24;6.63;;;4.68;;
48042;SDS011;33988;47.992;8.820;2023-05-14T07:29:01;5.70;;;4.07;;
48042;SDS011;33988;47.992;8.820;2023-05-14T07:31:30;4.65;;;4.00;;
48042;SDS011;33988;47.992;8.820;2023-05-14T07:33:57;4.72;;;3.80;;
48042;SDS011;33988;47.992;8.820;2023-05-14T07:36:24;4.40;;;4.00;;
48042;SDS011;33988;47.992;8.820;2023-05-14T07:38:51;4.30;;;3.90;;
48042;SDS011;33988;47.992;8.820;2023-05-14T07:41:18;4.13;;;3.72;;
48042;SDS011;33988;47.992;8.820;2023-05-14T07:46:16;4.18;;;3.40;;
48042;SDS011;33988;47.992;8.820;2023-05-14T07:48:46;3.72;;;3.35;;
48042;SDS011;33988;47.992;8.820;2023-05-14T07:51:15;4.05;;;3.25;;
48042;SDS011;33988;47.992;8.820;2023-05-14T07:53:42;4.07;;;3.33;;
48042;SDS011;33988;47.992;8.820;2023-05-14T07:56:09;3.38;;;3.08;;
48042;SDS011;33988;47.992;8.820;2023-05-14T07:58:36;3.50;;;3.20;;
48042;SDS011;33988;47.992;8.820;2023-05-14T08:01:06;3.53;;;2.97;;
48042;SDS011;33988;47.992;8.820;2023-05-14T08:03:34;4.35;;;3.03;;
48042;SDS011;33988;47.992;8.820;2023-05-14T08:06:06;4.13;;;3.05;;
48042;SDS011;33988;47.992;8.820;2023-05-14T08:08:33;3.30;;;3.00;;
48042;SDS011;33988;47.992;8.820;2023-05-14T08:11:02;3.17;;;2.88;;
48042;SDS011;33988;47.992;8.820;2023-05-14T08:13:32;3.67;;;3.15;;
48042;SDS011;33988;47.992;8.820;2023-05-14T08:16:01;3.53;;;3.20;;
48042;SDS011;33988;47.992;8.820;2023-05-14T08:18:28;5.13;;;4.05;;
48042;SDS011;33988;47.992;8.820;2023-05-14T08:20:58;4.60;;;3.67;;
48042;SDS011;33988;47.992;8.820;2023-05-14T08:23:27;3.53;;;3.08;;
48042;SDS011;33988;47.992;8.820;2023-05-14T08:25:56;4.20;;;3.22;;
48042;SDS011;33988;47.992;8.820;2023-05-14T08:28:26;3.15;;;2.85;;
48042;SDS011;33988;47.992;8.820;2023-05-14T08:30:55;3.38;;;2.92;;
48042;SDS011;33988;47.992;8.820;2023-05-14T08:33:25;3.22;;;2.92;;
48042;SDS011;33988;47.992;8.820;2023-05-14T08:35:52;4.95;;;3.05;;
48042;SDS011;33988;47.992;8.820;2023-05-14T08:38:22;3.90;;;3.25;;
48042;SDS011;33988;47.992;8.820;2023-05-14T08:40:51;4.35;;;3.63;;
48042;SDS011;33988;47.992;8.820;2023-05-14T08:43:29;3.60;;;3.28;;
48042;SDS011;33988;47.992;8.820;2023-05-14T08:46:13;3.72;;;3.08;;
48042;SDS011;33988;47.992;8.820;2023-05-14T08:48:42;3.58;;;3.25;;
48042;SDS011;33988;47.992;8.820;2023-05-14T08:51:18;3.72;;;3.35;;
48042;SDS011;33988;47.992;8.820;2023-05-14T08:53:47;3.92;;;3.45;;
48042;SDS011;33988;47.992;8.820;2023-05-14T08:56:15;3.63;;;3.13;;
48042;SDS011;33988;47.992;8.820;2023-05-14T08:58:44;3.42;;;3.10;;
48042;SDS011;33988;47.992;8.820;2023-05-14T09:01:11;3.90;;;3.50;;
48042;SDS011;33988;47.992;8.820;2023-05-14T09:03:38;3.38;;;3.08;;
48042;SDS011;33988;47.992;8.820;2023-05-14T09:06:08;3.67;;;3.25;;
48042;SDS011;33988;47.992;8.820;2023-05-14T09:08:36;3.67;;;3.22;;
48042;SDS011;33988;47.992;8.820;2023-05-14T09:11:05;3.95;;;3.58;;
48042;SDS011;33988;47.992;8.820;2023-05-14T09:13:35;4.50;;;3.55;;
48042;SDS011;33988;47.992;8.820;2023-05-14T09:16:03;4.80;;;3.85;;
48042;SDS011;33988;47.992;8.820;2023-05-14T09:18:33;4.80;;;4.00;;
48042;SDS011;33988;47.992;8.820;2023-05-14T09:21:01;3.38;;;3.08;;
48042;SDS011;33988;47.992;8.820;2023-05-14T09:23:31;3.78;;;3.25;;
48042;SDS011;33988;47.992;8.820;2023-05-14T09:26:02;4.18;;;3.55;;
48042;SDS011;33988;47.992;8.820;2023-05-14T09:28:31;4.65;;;3.22;;
48042;SDS011;33988;47.992;8.820;2023-05-14T09:31:01;4.20;;;3.40;;
48042;SDS011;33988;47.992;8.820;2023-05-14T09:33:32;3.40;;;3.10;;
48042;SDS011;33988;47.992;8.820;2023-05-14T09:35:59;3.55;;;3.17;;
48042;SDS011;33988;47.992;8.820;2023-05-14T09:38:27;3.45;;;3.15;;
48042;SDS011;33988;47.992;8.820;2023-05-14T09:41:03;4.20;;;3.20;;
48042;SDS011;33988;47.992;8.820;2023-05-14T09:43:35;3.65;;;3.28;;
48042;SDS011;33988;47.992;8.820;2023-05-14T09:46:04;3.97;;;3.40;;
48042;SDS011;33988;47.992;8.820;2023-05-14T09:48:31;3.50;;;3.15;;
48042;SDS011;33988;47.992;8.820;2023-05-14T09:51:03;5.03;;;3.80;;
48042;SDS011;33988;47.992;8.820;2023-05-14T09:53:33;4.90;;;3.83;;
48042;SDS011;33988;47.992;8.820;2023-05-14T09:56:00;5.55;;;4.10;;
48042;SDS011;33988;47.992;8.820;2023-05-14T09:58:30;4.30;;;3.42;;
48042;SDS011;33988;47.992;8.820;2023-05-14T10:00:59;4.80;;;3.83;;
48042;SDS011;33988;47.992;8.820;2023-05-14T10:03:28;4.00;;;3.38;;
48042;SDS011;33988;47.992;8.820;2023-05-14T10:06:01;3.38;;;3.08;;
48042;SDS011;33988;47.992;8.820;2023-05-14T10:08:35;4.35;;;3.65;;
48042;SDS011;33988;47.992;8.820;2023-05-14T10:11:07;6.03;;;3.63;;
48042;SDS011;33988;47.992;8.820;2023-05-14T10:13:48;4.13;;;3.05;;
48042;SDS011;33988;47.992;8.820;2023-05-14T10:16:47;4.32;;;3.85;;
48042;SDS011;33988;47.992;8.820;2023-05-14T10:19:19;4.25;;;3.47;;
48042;SDS011;33988;47.992;8.820;2023-05-14T10:21:57;4.38;;;3.83;;
48042;SDS011;33988;47.992;8.820;2023-05-14T10:24:35;5.18;;;4.00;;
48042;SDS011;33988;47.992;8.820;2023-05-14T10:27:08;4.10;;;3.67;;
48042;SDS011;33988;47.992;8.820;2023-05-14T10:29:37;4.78;;;3.97;;
48042;SDS011;33988;47.992;8.820;2023-05-14T10:32:07;4.63;;;4.03;;
48042;SDS011;33988;47.992;8.820;2023-05-14T10:34:36;4.22;;;3.83;;
48042;SDS011;33988;47.992;8.820;2023-05-14T10:37:08;5.22;;;4.07;;
48042;SDS011;33988;47.992;8.820;2023-05-14T10:44:54;5.50;;;4.90;;
48042;SDS011;33988;47.992;8.820;2023-05-14T10:47:24;5.18;;;4.68;;
48042;SDS011;33988;47.992;8.820;2023-05-14T10:49:56;6.07;;;4.72;;
48042;SDS011;33988;47.992;8.820;2023-05-14T10:52:25;5.50;;;4.68;;
48042;SDS011;33988;47.992;8.820;2023-05-14T10:54:53;6.20;;;4.20;;
48042;SDS011;33988;47.992;8.820;2023-05-14T10:57:29;4.57;;;4.13;;
48042;SDS011;33988;47.992;8.820;2023-05-14T11:00:00;5.00;;;4.38;;
48042;SDS011;33988;47.992;8.820;2023-05-14T11:02:30;5.00;;;4.40;;
48042;SDS011;33988;47.992;8.820;2023-05-14T11:05:06;6.23;;;4.57;;
48042;SDS011;33988;47.992;8.820;2023-05-14T11:07:44;4.53;;;4.13;;
48042;SDS011;33988;47.992;8.820;2023-05-14T11:10:19;5.13;;;4.50;;
48042;SDS011;33988;47.992;8.820;2023-05-14T11:12:51;4.63;;;4.13;;
48042;SDS011;33988;47.992;8.820;2023-05-14T11:15:21;4.93;;;4.45;;
48042;SDS011;33988;47.992;8.820;2023-05-14T11:17:53;5.45;;;3.97;;
48042;SDS011;33988;47.992;8.820;2023-05-14T11:20:28;4.53;;;4.03;;
48042;SDS011;33988;47.992;8.820;2023-05-14T11:22:55;4.30;;;3.78;;
48042;SDS011;33988;47.992;8.820;2023-05-14T11:25:25;3.63;;;3.30;;
48042;SDS011;33988;47.992;8.820;2023-05-14T11:27:54;4.10;;;3.60;;
48042;SDS011;33988;47.992;8.820;2023-05-14T11:30:25;4.38;;;3.83;;
48042;SDS011;33988;47.992;8.820;2023-05-14T11:32:54;4.13;;;3.72;;
48042;SDS011;33988;47.992;8.820;2023-05-14T11:35:21;5.25;;;3.58;;
48042;SDS011;33988;47.992;8.820;2023-05-14T11:37:53;3.88;;;3.40;;
48042;SDS011;33988;47.992;8.820;2023-05-14T11:40:20;4.05;;;3.65;;
48042;SDS011;33988;47.992;8.820;2023-05-14T11:42:52;3.80;;;3.40;;
48042;SDS011;33988;47.992;8.820;2023-05-14T11:45:25;3.47;;;3.17;;
48042;SDS011;33988;47.992;8.820;2023-05-14T11:47:54;3.88;;;3.33;;
48042;SDS011;33988;47.992;8.820;2023-05-14T11:50:24;3.72;;;3.03;;
48042;SDS011;33988;47.992;8.820;2023-05-14T11:52:57;4.78;;;3.47;;
48042;SDS011;33988;47.992;8.820;2023-05-14T11:55:26;4.47;;;4.07;;
48042;SDS011;33988;47.992;8.820;2023-05-14T11:57:53;3.55;;;3.25;;
48042;SDS011;33988;47.992;8.820;2023-05-14T12:00:20;3.50;;;3.17;;
48042;SDS011;33988;47.992;8.820;2023-05-14T12:02:50;3.88;;;3.47;;
48042;SDS011;33988;47.992;8.820;2023-05-14T12:05:17;4.15;;;3.05;;
48042;SDS011;33988;47.992;8.820;2023-05-14T12:07:49;8.80;;;2.85;;
48042;SDS011;33988;47.992;8.820;2023-05-14T12:10:19;3.78;;;3.38;;
48042;SDS011;33988;47.992;8.820;2023-05-14T12:12:48;3.72;;;2.97;;
48042;SDS011;33988;47.992;8.820;2023-05-14T12:15:21;5.07;;;3.42;;
48042;SDS011;33988;47.992;8.820;2023-05-14T12:17:49;2.97;;;2.67;;
48042;SDS011;33988;47.992;8.820;2023-05-14T12:20:21;2.88;;;2.67;;
48042;SDS011;33988;47.992;8.820;2023-05-14T12:22:51;3.78;;;2.47;;
48042;SDS011;33988;47.992;8.820;2023-05-14T12:25:19;5.70;;;3.53;;
48042;SDS011;33988;47.992;8.820;2023-05-14T12:27:48;3.65;;;3.08;;
48042;SDS011;33988;47.992;8.820;2023-05-14T12:30:15;3.17;;;2.60;;
48042;SDS011;33988;47.992;8.820;2023-05-14T12:32:47;4.32;;;2.88;;
48042;SDS011;33988;47.992;8.820;2023-05-14T12:35:20;2.97;;;2.78;;
48042;SDS011;33988;47.992;8.820;2023-05-14T12:37:48;3.17;;;2.80;;
48042;SDS011;33988;47.992;8.820;2023-05-14T12:40:15;3.55;;;3.10;;
48042;SDS011;33988;47.992;8.820;2023-05-14T12:42:44;2.85;;;2.60;;
48042;SDS011;33988;47.992;8.820;2023-05-14T12:45:13;2.67;;;2.47;;
48042;SDS011;33988;47.992;8.820;2023-05-14T12:47:45;3.70;;;3.20;;
48042;SDS011;33988;47.992;8.820;2023-05-14T12:50:12;2.72;;;2.45;;
48042;SDS011;33988;47.992;8.820;2023-05-14T12:52:42;2.60;;;2.40;;
48042;SDS011;33988;47.992;8.820;2023-05-14T12:55:11;3.05;;;2.42;;
48042;SDS011;33988;47.992;8.820;2023-05-14T12:57:41;2.85;;;2.53;;
48042;SDS011;33988;47.992;8.820;2023-05-14T13:00:08;3.33;;;3.03;;
48042;SDS011;33988;47.992;8.820;2023-05-14T13:05:15;2.47;;;2.28;;
48042;SDS011;33988;47.992;8.820;2023-05-14T13:07:44;3.53;;;2.90;;
48042;SDS011;33988;47.992;8.820;2023-05-14T13:10:11;2.63;;;2.42;;
48042;SDS011;33988;47.992;8.820;2023-05-14T13:12:38;3.00;;;2.58;;
48042;SDS011;33988;47.992;8.820;2023-05-14T13:15:08;9.35;;;3.17;;
48042;SDS011;33988;47.992;8.820;2023-05-14T13:17:37;2.90;;;2.60;;
48042;SDS011;33988;47.992;8.820;2023-05-14T13:20:06;3.25;;;2.58;;
48042;SDS011;33988;47.992;8.820;2023-05-14T13:22:34;3.80;;;3.00;;
48042;SDS011;33988;47.992;8.820;2023-05-14T13:25:01;3.20;;;2.90;;
48042;SDS011;33988;47.992;8.820;2023-05-14T13:27:31;2.78;;;2.58;;
48042;SDS011;33988;47.992;8.820;2023-05-14T13:29:58;2.75;;;2.47;;
48042;SDS011;33988;47.992;8.820;2023-05-14T13:32:25;2.47;;;2.28;;
48042;SDS011;33988;47.992;8.820;2023-05-14T13:34:52;2.50;;;2.30;;
48042;SDS011;33988;47.992;8.820;2023-05-14T13:37:20;2.72;;;2.45;;
48042;SDS011;33988;47.992;8.820;2023-05-14T13:39:47;3.03;;;2.40;;
48042;SDS011;33988;47.992;8.820;2023-05-14T13:42:17;4.00;;;2.58;;
48042;SDS011;33988;47.992;8.820;2023-05-14T13:44:46;2.10;;;1.90;;
48042;SDS011;33988;47.992;8.820;2023-05-14T13:47:13;2.13;;;1.92;;
48042;SDS011;33988;47.992;8.820;2023-05-14T13:49:42;3.88;;;1.95;;
48042;SDS011;33988;47.992;8.820;2023-05-14T13:52:09;2.30;;;2.10;;
48042;SDS011;33988;47.992;8.820;2023-05-14T13:54:36;2.17;;;1.75;;
48042;SDS011;33988;47.992;8.820;2023-05-14T13:57:08;1.92;;;1.83;;
48042;SDS011;33988;47.992;8.820;2023-05-14T13:59:37;1.73;;;1.60;;
48042;SDS011;33988;47.992;8.820;2023-05-14T14:02:10;1.63;;;1.52;;
48042;SDS011;33988;47.992;8.820;2023-05-14T14:04:39;3.08;;;1.88;;
48042;SDS011;33988;47.992;8.820;2023-05-14T14:07:06;1.75;;;1.65;;
48042;SDS011;33988;47.992;8.820;2023-05-14T14:09:34;3.67;;;2.15;;
48042;SDS011;33988;47.992;8.820;2023-05-14T14:12:06;2.05;;;1.85;;
48042;SDS011;33988;47.992;8.820;2023-05-14T14:14:34;1.92;;;1.80;;
48042;SDS011;33988;47.992;8.820;2023-05-14T14:17:03;2.30;;;2.10;;
48042;SDS011;33988;47.992;8.820;2023-05-14T14:19:30;2.35;;;2.15;;
48042;SDS011;33988;47.992;8.820;2023-05-14T14:24:29;2.17;;;1.98;;
48042;SDS011;33988;47.992;8.820;2023-05-14T14:26:55;2.80;;;2.30;;
48042;SDS011;33988;47.992;8.820;2023-05-14T14:31:56;2.75;;;2.00;;
48042;SDS011;33988;47.992;8.820;2023-05-14T14:34:27;2.03;;;1.83;;
48042;SDS011;33988;47.992;8.820;2023-05-14T14:36:57;2.28;;;2.08;;
48042;SDS011;33988;47.992;8.820;2023-05-14T14:39:24;2.15;;;1.98;;
48042;SDS011;33988;47.992;8.820;2023-05-14T14:41:51;2.05;;;1.83;;
48042;SDS011;33988;47.992;8.820;2023-05-14T14:44:18;2.17;;;1.98;;
48042;SDS011;33988;47.992;8.820;2023-05-14T14:46:46;3.70;;;2.08;;
48042;SDS011;33988;47.992;8.820;2023-05-14T14:49:17;1.92;;;1.83;;
48042;SDS011;33988;47.992;8.820;2023-05-14T14:51:46;3.28;;;2.03;;
48042;SDS011;33988;47.992;8.820;2023-05-14T14:54:16;2.85;;;1.40;;
48042;SDS011;33988;47.992;8.820;2023-05-14T14:56:45;3.47;;;2.22;;
48042;SDS011;33988;47.992;8.820;2023-05-14T14:59:14;1.73;;;1.50;;
48042;SDS011;33988;47.992;8.820;2023-05-14T15:01:41;1.50;;;1.40;;
48042;SDS011;33988;47.992;8.820;2023-05-14T15:04:08;1.60;;;1.48;;
48042;SDS011;33988;47.992;8.820;2023-05-14T15:06:35;1.48;;;1.38;;
48042;SDS011;33988;47.992;8.820;2023-05-14T15:09:04;1.70;;;1.50;;
48042;SDS011;33988;47.992;8.820;2023-05-14T15:11:31;4.07;;;1.55;;
48042;SDS011;33988;47.992;8.820;2023-05-14T15:13:57;1.50;;;1.40;;
48042;SDS011;33988;47.992;8.820;2023-05-14T15:16:24;1.70;;;1.55;;
48042;SDS011;33988;47.992;8.820;2023-05-14T15:18:54;4.95;;;1.63;;
48042;SDS011;33988;47.992;8.820;2023-05-14T15:21:21;1.23;;;1.13;;
48042;SDS011;33988;47.992;8.820;2023-05-14T15:23:50;1.40;;;1.00;;
48042;SDS011;33988;47.992;8.820;2023-05-14T15:26:20;1.55;;;1.02;;
48042;SDS011;33988;47.992;8.820;2023-05-14T15:28:50;3.72;;;1.60;;
48042;SDS011;33988;47.992;8.820;2023-05-14T15:31:20;1.83;;;1.63;;
48042;SDS011;33988;47.992;8.820;2023-05-14T15:33:47;1.90;;;1.63;;
48042;SDS011;33988;47.992;8.820;2023-05-14T15:36:17;2.35;;;1.60;;
48042;SDS011;33988;47.992;8.820;2023-05-14T15:38:48;1.98;;;1.75;;
48042;SDS011;33988;47.992;8.820;2023-05-14T15:41:23;2.90;;;2.28;;
48042;SDS011;33988;47.992;8.820;2023-05-14T15:43:53;2.25;;;1.98;;